UUWWURMM

Guest
Details From UUWW - Vnukovo
To URMM - Mineralnyye Vody
Flight Number -
Tags Generated
Created
Modified
Stats Distance 719 nm / 1,332 km
Max Altitude 0 ft / 0 m
Waypoints 5
Social Downloads 1
Likes 0
Share VATSIM

Download

Looking for another format? Having issues loading an existing format? Contact us
Advertisement - Login to hide

Notes

Generated

Route

UUWW USMAN MOROG MD URMM

ID Type Via Altitude Latitude Longitude Leg Dist Tot Dist Heading (true) Name
O UUWW APT - 0 ft / 0 m 55.58804˚ 37.24603˚ - 0 nm - -
USMAN FIX - 0 ft / 0 m 52.03333˚ 39.73333˚ 230 nm 230 nm 157° / 159° -
MOROG FIX - 0 ft / 0 m 48.35000˚ 41.80000˚ 235 nm 465 nm 159° / 161° -
MD NDB - 0 ft / 0 m 44.25833˚ 43.00833˚ 250 nm 716 nm 168° / 169° MINERALNYYE VODY NDB
O URMM APT - 0 ft / 0 m 44.23442˚ 43.06126˚ 2 nm 719 nm 122° / 122° -

Altitude Profile

Advertisement - Login to hide

Weather


0- 5 10 15 20 25 30 35+ Temperature / ° C

Clouds and Precipitation
Forecast for 2017-12-13 18:00 UTC. Updated 2 hours ago

Ground ~20,000 ft ~40,000 ft Winds

UUWW

Details ICAO UUWW (VKO)
Name VNUKOVO
Region Russia
Timezone Europe/Moscow (UTC+3.0)
Stats Elevation 685 ft / 209 m (AMSL)
Location 55.596061° 37.267664°
Runways 2
Magnetic Variation 10.959° E

METAR

UUWW 131900Z 21002MPS CAVOK 01/M00 Q1012 R24/190060 NOSIG

Decode

TAF

TAF UUWW 131659Z 1318/1418 23003MPS 6000 SCT009 TX01/1410Z TNM00/1403Z FM132000 VRB01MPS 3000 BR BKN005 TEMPO 1321/1406 0400 FG BKN002 TEMPO 1406/1418 1500 SN BR OVC003 PROB40 TEMPO 1406/1415 -FZDZ OVC003

Decode

Departure Runways

ID Width Length Bearing (true) Bearing (mag) Surface Threshold Offset Overrun Length
02 197 ft / 60 m 9,993 ft / 3,046 m 23.36° 12.40° Asphalt 0 ft / 0 m 140 ft / 43 m
06 197 ft / 60 m 9,785 ft / 2,982 m 68.26° 57.30° Asphalt 0 ft / 0 m 250 ft / 76 m
20 197 ft / 60 m 9,993 ft / 3,046 m 203.37° 192.41° Asphalt 0 ft / 0 m 150 ft / 46 m
24 197 ft / 60 m 9,785 ft / 2,982 m 248.29° 237.33° Asphalt 0 ft / 0 m 260 ft / 79 m

URMM

Details ICAO URMM (MRV)
Name MINERALNYYE VODY
Region Russia
Timezone Europe/Moscow (UTC+3.0)
Stats Elevation 1,054 ft / 321 m (AMSL)
Location 44.225073° 43.081891°
Runways 1
Magnetic Variation 7.387° E

METAR

URMM 131900Z 10005MPS 9999 BKN004 00/00 Q1020 R12/090070 NOSIG RMK MT OBSC QFE737/0982

Decode

TAF

TAF URMM 131659Z 1318/1418 09005G10MPS 1200 BR OVC003 TX04/1410Z TNM03/1403Z TEMPO 1318/1406 0300 -FZDZ FZFG OVC002 BECMG 1408/1410 3100 BR OVC011

Decode

Destination Runways

ID Width Length Bearing (true) Bearing (mag) Surface Threshold Offset Overrun Length
12 197 ft / 60 m 12,766 ft / 3,891 m 122.28° 114.89° Concrete 0 ft / 0 m 240 ft / 73 m
30 197 ft / 60 m 12,766 ft / 3,891 m 302.31° 294.92° Concrete 0 ft / 0 m 250 ft / 76 m

Popular Alternatives